Time;durP1;ratioP1;P1;durP2;ratioP2;P2;SDS_P1;SDS_P2;PMS_P1;PMS_P2;Temp;Humidity;BMP_temperature;BMP_pressure;BME280_temperature;BME280_humidity;BME280_pressure;Samples;Min_cycle;Max_cycle;Signal;HPM_P1;HPM_P2
2022/06/21 00:01:10;;;;;;;9.32;3.90;;;12.00;99.90;;;;;;4980689;28;20053;-87
2022/06/21 00:03:36;;;;;;;8.90;3.67;;;11.90;99.90;;;;;;4971870;28;20043;-86
2022/06/21 00:06:01;;;;;;;7.30;3.22;;;11.90;99.90;;;;;;4958588;28;20077;-88
2022/06/21 00:08:33;;;;;;;11.95;3.70;;;11.80;99.90;;;;;;4973696;28;20147;-87
2022/06/21 00:10:59;;;;;;;11.57;3.70;;;11.90;99.90;;;;;;4964250;28;20034;-86
2022/06/21 00:13:30;;;;;;;9.20;4.20;;;11.90;99.90;;;;;;4978211;28;20038;-87
2022/06/21 00:16:02;;;;;;;9.05;3.80;;;11.90;99.90;;;;;;4977370;28;20599;-87
2022/06/21 00:18:31;;;;;;;11.63;4.30;;;11.90;99.90;;;;;;4955430;28;20047;-87
2022/06/21 00:20:57;;;;;;;9.40;3.95;;;11.90;99.90;;;;;;4980678;28;20108;-87
2022/06/21 00:23:28;;;;;;;10.40;3.75;;;11.80;99.90;;;;;;4974711;28;20046;-87
2022/06/21 00:25:54;;;;;;;9.07;3.60;;;11.80;99.90;;;;;;4976444;28;20127;-87
2022/06/21 00:28:21;;;;;;;8.00;4.50;;;11.70;99.90;;;;;;4978315;28;20584;-87
2022/06/21 00:30:48;;;;;;;9.50;3.72;;;11.70;99.90;;;;;;4975775;28;20043;-87
2022/06/21 00:33:17;;;;;;;7.25;3.35;;;11.60;99.90;;;;;;4971459;28;20051;-87
2022/06/21 00:35:46;;;;;;;8.02;3.50;;;11.60;99.90;;;;;;4974710;28;20162;-87
2022/06/21 00:38:19;;;;;;;10.18;3.67;;;11.60;99.90;;;;;;4964879;28;20053;-87
2022/06/21 00:40:44;;;;;;;9.55;3.30;;;11.50;99.90;;;;;;4965671;28;20613;-87
2022/06/21 00:43:21;;;;;;;9.48;3.67;;;11.50;99.90;;;;;;4977368;28;20051;-87
2022/06/21 00:45:49;;;;;;;8.70;3.42;;;11.40;99.90;;;;;;4982398;28;20042;-87
2022/06/21 00:48:33;;;;;;;8.50;3.67;;;11.30;99.90;;;;;;4979165;28;20090;-87
2022/06/21 00:51:18;;;;;;;8.35;3.58;;;11.30;99.90;;;;;;5000435;28;20438;-87
2022/06/21 00:53:50;;;;;;;7.95;4.03;;;11.20;99.90;;;;;;4981166;28;20434;-87
2022/06/21 00:56:39;;;;;;;8.85;4.15;;;11.10;99.90;;;;;;4980985;28;20057;-87
2022/06/21 00:59:25;;;;;;;10.48;4.25;;;11.10;99.90;;;;;;4981725;28;20109;-87
2022/06/21 01:01:55;;;;;;;9.27;3.72;;;11.10;99.90;;;;;;4983983;28;20065;-87
2022/06/21 01:04:32;;;;;;;10.75;4.15;;;11.00;99.90;;;;;;4979996;28;20348;-87
2022/06/21 01:07:01;;;;;;;9.23;4.13;;;11.00;99.90;;;;;;4964637;28;20159;-87
2022/06/21 01:09:51;;;;;;;8.00;3.85;;;11.00;99.90;;;;;;4979124;28;20206;-87
2022/06/21 01:12:42;;;;;;;10.85;4.15;;;11.00;99.90;;;;;;4983976;28;20406;-87
2022/06/21 01:15:19;;;;;;;7.38;4.03;;;10.90;99.90;;;;;;4986861;28;20489;-87
2022/06/21 01:17:48;;;;;;;9.57;4.15;;;10.90;99.90;;;;;;4980397;28;20050;-87
2022/06/21 01:20:19;;;;;;;9.85;3.75;;;10.90;99.90;;;;;;4977194;28;20138;-87
2022/06/21 01:23:03;;;;;;;8.05;3.78;;;10.80;99.90;;;;;;4980067;28;20038;-87
2022/06/21 01:25:55;;;;;;;11.13;4.43;;;10.80;99.90;;;;;;4957894;28;20058;-87
2022/06/21 01:28:20;;;;;;;8.48;3.92;;;10.80;99.90;;;;;;4921843;28;20411;-87
2022/06/21 01:30:51;;;;;;;8.70;3.88;;;10.80;99.90;;;;;;4956724;28;20042;-86
2022/06/21 01:33:25;;;;;;;8.82;4.75;;;10.70;99.90;;;;;;4982819;28;20050;-87
2022/06/21 01:35:54;;;;;;;9.35;4.00;;;10.70;99.90;;;;;;4965103;28;20054;-87
2022/06/21 01:38:37;;;;;;;8.80;4.10;;;10.70;99.90;;;;;;4978536;28;20065;-87
2022/06/21 01:41:14;;;;;;;12.05;4.90;;;10.70;99.90;;;;;;4973501;28;20038;-87
2022/06/21 01:43:43;;;;;;;9.68;4.50;;;10.70;99.90;;;;;;4960956;28;20125;-87
2022/06/21 01:46:14;;;;;;;8.30;4.00;;;10.60;99.90;;;;;;4976240;28;20045;-87
2022/06/21 01:48:48;;;;;;;7.38;3.75;;;10.60;99.90;;;;;;4966753;28;20038;-87
2022/06/21 01:51:25;;;;;;;6.97;3.40;;;10.50;99.90;;;;;;4983719;28;20069;-87
2022/06/21 01:53:52;;;;;;;5.78;3.20;;;10.40;99.90;;;;;;4975854;28;20046;-87
2022/06/21 01:56:22;;;;;;;6.32;3.25;;;10.40;99.90;;;;;;4976744;28;20065;-87
2022/06/21 01:59:11;;;;;;;4.57;2.55;;;10.30;99.90;;;;;;4978038;28;20042;-88
2022/06/21 02:01:48;;;;;;;5.03;2.58;;;10.30;99.90;;;;;;4977716;28;20082;-88
2022/06/21 02:04:20;;;;;;;5.07;2.75;;;10.20;99.90;;;;;;4955860;28;20042;-87
2022/06/21 02:06:47;;;;;;;6.78;3.00;;;10.20;99.90;;;;;;4978718;28;20059;-87
2022/06/21 02:09:23;;;;;;;7.47;3.50;;;10.20;99.90;;;;;;4981217;28;20070;-87
2022/06/21 02:12:00;;;;;;;6.97;3.75;;;10.10;99.90;;;;;;4964425;28;20051;-87
2022/06/21 02:14:29;;;;;;;9.57;4.00;;;10.20;99.90;;;;;;4991015;28;20038;-87
2022/06/21 02:17:05;;;;;;;7.95;4.25;;;10.10;99.90;;;;;;4973982;28;20074;-87
2022/06/21 02:19:52;;;;;;;8.65;4.18;;;10.10;99.90;;;;;;4961316;28;20046;-87
2022/06/21 02:22:21;;;;;;;7.90;4.43;;;10.10;99.90;;;;;;4961882;28;20030;-87
2022/06/21 02:24:47;;;;;;;9.50;4.55;;;10.10;99.90;;;;;;4964237;28;21131;-87
2022/06/21 02:27:17;;;;;;;8.30;4.68;;;10.10;99.90;;;;;;4998128;28;20455;-86
2022/06/21 02:29:48;;;;;;;9.30;4.70;;;10.10;99.90;;;;;;4980096;28;20096;-87
2022/06/21 02:32:37;;;;;;;7.55;4.40;;;10.10;99.90;;;;;;4972998;28;20089;-87
2022/06/21 02:35:18;;;;;;;6.90;4.47;;;10.10;99.90;;;;;;4977406;28;20046;-87
2022/06/21 02:37:45;;;;;;;7.65;3.28;;;10.10;99.90;;;;;;4977713;28;20073;-87
2022/06/21 02:40:39;;;;;;;8.32;4.20;;;10.00;99.90;;;;;;4971481;28;20126;-87
2022/06/21 02:43:11;;;;;;;6.28;3.90;;;10.00;99.90;;;;;;4953830;28;20058;-88
2022/06/21 02:45:59;;;;;;;6.90;4.07;;;9.90;99.90;;;;;;4964003;28;20093;-87
2022/06/21 02:48:29;;;;;;;7.68;4.22;;;9.90;99.90;;;;;;4960868;28;20053;-87
2022/06/21 02:51:06;;;;;;;6.97;3.95;;;9.80;99.90;;;;;;4985212;28;20081;-87
2022/06/21 02:53:40;;;;;;;8.57;4.13;;;9.80;99.90;;;;;;4982660;28;20048;-86
2022/06/21 02:56:14;;;;;;;8.32;4.53;;;9.80;99.90;;;;;;4959207;28;20410;-87
2022/06/21 02:58:47;;;;;;;7.72;4.22;;;9.80;99.90;;;;;;4978677;28;20042;-87
2022/06/21 03:01:27;;;;;;;7.45;4.10;;;9.80;99.90;;;;;;4981835;28;20402;-86
2022/06/21 03:03:54;;;;;;;8.63;4.50;;;9.80;99.90;;;;;;4960458;28;20039;-86
2022/06/21 03:06:21;;;;;;;7.03;4.30;;;9.80;99.90;;;;;;4979085;28;20857;-87
2022/06/21 03:09:07;;;;;;;6.63;4.35;;;9.80;99.90;;;;;;4961582;28;20057;-87
2022/06/21 03:11:36;;;;;;;7.30;4.65;;;9.80;99.90;;;;;;4963448;28;20475;-87
2022/06/21 03:14:05;;;;;;;7.30;4.70;;;9.70;99.90;;;;;;4961887;28;20062;-87
2022/06/21 03:16:31;;;;;;;8.57;5.35;;;9.70;99.90;;;;;;4973866;28;20039;-87
2022/06/21 03:19:03;;;;;;;7.50;5.00;;;9.70;99.90;;;;;;4978844;28;20046;-87
2022/06/21 03:21:35;;;;;;;7.47;5.40;;;9.60;99.90;;;;;;4957440;28;20045;-87
2022/06/21 03:24:15;;;;;;;8.27;5.45;;;9.60;99.90;;;;;;4981398;28;20046;-86
2022/06/21 03:26:42;;;;;;;7.95;4.65;;;9.60;99.90;;;;;;4977154;28;20042;-87
2022/06/21 03:29:08;;;;;;;7.00;4.72;;;9.50;99.90;;;;;;4958755;28;20077;-86
2022/06/21 03:31:37;;;;;;;7.10;4.70;;;9.50;99.90;;;;;;4978941;28;20530;-86
2022/06/21 03:34:10;;;;;;;7.35;4.60;;;9.60;99.90;;;;;;4967719;28;20050;-87
2022/06/21 03:36:36;;;;;;;6.93;4.47;;;9.60;99.90;;;;;;4973110;28;20045;-86
2022/06/21 03:39:12;;;;;;;7.25;4.80;;;9.50;99.90;;;;;;4973015;28;20503;-86
2022/06/21 03:41:43;;;;;;;8.20;5.10;;;9.50;99.90;;;;;;4984083;28;20034;-87
2022/06/21 03:44:29;;;;;;;7.40;5.03;;;9.50;99.90;;;;;;4979234;28;20053;-87
2022/06/21 03:47:08;;;;;;;7.85;4.90;;;9.60;99.90;;;;;;4959099;28;20054;-87
2022/06/21 03:50:06;;;;;;;7.63;5.25;;;9.60;99.90;;;;;;4976949;28;20053;-87
2022/06/21 03:52:44;;;;;;;6.65;4.60;;;9.50;99.90;;;;;;4958623;28;20408;-87
2022/06/21 03:55:12;;;;;;;6.88;4.82;;;9.50;99.90;;;;;;4962244;28;20038;-86
2022/06/21 03:57:41;;;;;;;6.88;4.75;;;9.50;99.90;;;;;;4979516;28;20042;-86
2022/06/21 04:00:11;;;;;;;7.20;4.53;;;9.50;99.90;;;;;;4970348;28;20049;-87
2022/06/21 04:02:44;;;;;;;6.70;4.63;;;9.50;99.90;;;;;;4980874;28;20063;-87
2022/06/21 04:05:15;;;;;;;8.57;5.00;;;9.60;99.90;;;;;;4981848;28;20047;-87
2022/06/21 04:07:49;;;;;;;10.55;6.00;;;9.60;99.90;;;;;;4974133;28;20157;-87
2022/06/21 04:10:31;;;;;;;7.60;4.97;;;9.60;99.90;;;;;;4981090;28;20451;-87
2022/06/21 04:13:39;;;;;;;7.80;4.88;;;9.70;99.90;;;;;;4982386;28;20141;-87
2022/06/21 04:16:38;;;;;;;8.30;5.00;;;9.70;99.90;;;;;;4974442;28;20043;-87
2022/06/21 04:19:10;;;;;;;7.32;4.60;;;9.70;99.90;;;;;;4941512;28;20058;-88
2022/06/21 04:21:44;;;;;;;8.43;4.75;;;9.80;99.90;;;;;;4962710;28;20053;-87
2022/06/21 04:24:21;;;;;;;7.55;4.80;;;9.80;99.90;;;;;;4960297;28;20047;-87
2022/06/21 04:27:20;;;;;;;7.20;4.72;;;9.80;99.90;;;;;;4957601;28;20097;-87
2022/06/21 04:29:52;;;;;;;7.38;4.70;;;9.80;99.90;;;;;;4968844;28;20058;-87
2022/06/21 04:32:24;;;;;;;7.57;4.82;;;9.80;99.90;;;;;;4977648;28;20166;-87
2022/06/21 04:35:00;;;;;;;9.07;5.40;;;9.80;99.90;;;;;;4975021;28;20050;-87
2022/06/21 04:37:44;;;;;;;8.73;6.28;;;9.80;99.90;;;;;;4977422;28;20046;-87
2022/06/21 04:40:22;;;;;;;10.23;5.93;;;9.80;99.90;;;;;;4974518;28;20046;-87
2022/06/21 04:43:06;;;;;;;9.07;5.35;;;9.90;99.90;;;;;;4975097;28;20064;-87
2022/06/21 04:45:35;;;;;;;10.15;5.40;;;9.90;99.90;;;;;;4961979;28;20057;-87
2022/06/21 04:48:32;;;;;;;10.02;5.70;;;10.00;99.90;;;;;;4974407;28;20125;-87
2022/06/21 04:51:06;;;;;;;8.23;5.55;;;10.10;99.90;;;;;;4976916;28;20042;-87
2022/06/21 04:53:49;;;;;;;10.18;5.82;;;10.20;99.90;;;;;;4974952;28;20133;-87
2022/06/21 04:56:47;;;;;;;10.25;6.10;;;10.30;99.90;;;;;;4976952;28;20671;-87
2022/06/21 04:59:29;;;;;;;11.18;5.72;;;10.30;99.90;;;;;;4969593;28;20047;-87
2022/06/21 05:01:56;;;;;;;9.55;5.63;;;10.40;99.90;;;;;;4978291;28;20505;-88
2022/06/21 05:04:29;;;;;;;10.05;5.78;;;10.50;99.90;;;;;;4976009;28;20066;-89
2022/06/21 05:06:58;;;;;;;10.18;5.82;;;10.50;99.90;;;;;;4959450;28;20061;-87
2022/06/21 05:09:27;;;;;;;8.85;6.30;;;10.60;99.90;;;;;;4961599;28;20054;-88
2022/06/21 05:12:24;;;;;;;9.45;6.20;;;10.60;99.90;;;;;;4970059;28;20057;-89
2022/06/21 05:14:56;;;;;;;10.10;6.72;;;10.70;99.90;;;;;;4962960;28;20051;-89
2022/06/21 05:17:23;;;;;;;8.68;6.35;;;10.80;99.90;;;;;;4973952;28;20518;-89
2022/06/21 05:19:57;;;;;;;9.85;6.43;;;10.80;99.90;;;;;;4978046;28;20049;-91
2022/06/21 05:22:35;;;;;;;10.80;6.30;;;11.00;99.90;;;;;;4973853;28;20038;-90
2022/06/21 05:25:04;;;;;;;9.77;6.95;;;11.00;99.90;;;;;;4969166;28;20565;-90
2022/06/21 05:27:47;;;;;;;10.13;6.78;;;11.10;99.90;;;;;;4976541;28;20069;-91
2022/06/21 05:30:38;;;;;;;9.32;6.60;;;11.20;99.90;;;;;;4970160;28;20035;-89
2022/06/21 05:33:27;;;;;;;11.43;6.78;;;11.30;99.90;;;;;;4978682;28;20064;-91
2022/06/21 05:35:53;;;;;;;9.48;6.90;;;11.40;99.90;;;;;;4977197;28;20787;-92
2022/06/21 05:38:19;;;;;;;9.57;6.60;;;11.50;99.90;;;;;;4974881;28;20050;-90
2022/06/21 05:41:02;;;;;;;9.82;6.55;;;11.50;99.90;;;;;;4982581;28;20309;-89
2022/06/21 05:43:37;;;;;;;9.20;6.75;;;11.60;99.90;;;;;;4975280;28;20126;-91
2022/06/21 05:46:09;;;;;;;10.45;7.13;;;11.70;99.90;;;;;;4966038;28;20035;-90
2022/06/21 05:48:38;;;;;;;10.52;6.70;;;11.80;99.90;;;;;;4977190;28;20058;-89
2022/06/21 05:51:07;;;;;;;9.18;6.55;;;11.90;99.90;;;;;;4980204;28;20356;-90
2022/06/21 05:53:55;;;;;;;8.88;6.70;;;12.00;99.90;;;;;;4980348;28;20050;-94
2022/06/21 05:56:25;;;;;;;12.32;7.15;;;12.10;99.90;;;;;;4963307;28;20109;-93
2022/06/21 05:59:04;;;;;;;10.40;6.97;;;12.30;99.90;;;;;;4987567;28;20050;-93
2022/06/21 06:01:34;;;;;;;10.25;7.32;;;12.40;99.90;;;;;;4972564;28;20039;-93
2022/06/21 06:04:06;;;;;;;10.23;7.10;;;12.60;99.90;;;;;;4977964;28;20043;-94
2022/06/21 06:06:36;;;;;;;11.57;7.50;;;12.80;99.90;;;;;;4967084;28;20475;-96
2022/06/21 06:09:26;;;;;;;9.70;6.22;;;13.00;99.90;;;;;;4979125;28;20511;-93
2022/06/21 06:12:19;;;;;;;9.60;6.20;;;13.20;99.90;;;;;;4973769;28;20081;-94
2022/06/21 06:14:51;;;;;;;10.93;7.20;;;13.50;99.90;;;;;;4956518;28;20085;-96
2022/06/21 06:17:25;;;;;;;10.32;6.78;;;13.90;99.90;;;;;;4988352;28;20073;-92
2022/06/21 06:20:23;;;;;;;10.52;6.70;;;14.10;99.90;;;;;;5001886;22;20038;-96
2022/06/21 06:23:26;;;;;;;9.45;6.40;;;14.40;99.90;;;;;;4993771;28;20053;-94
2022/06/21 06:25:56;;;;;;;11.43;7.90;;;14.70;99.90;;;;;;4969278;28;20046;-95
2022/06/21 06:28:38;;;;;;;10.05;5.30;;;14.80;99.90;;;;;;4980456;28;20046;-92
2022/06/21 06:31:32;;;;;;;9.10;4.95;;;15.00;99.90;;;;;;4970184;28;20258;-95
2022/06/21 06:34:09;;;;;;;11.77;4.85;;;15.10;99.90;;;;;;4962625;28;20042;-95
2022/06/21 06:36:42;;;;;;;10.82;5.40;;;15.20;99.90;;;;;;4975729;28;20065;-95
2022/06/21 06:39:29;;;;;;;8.50;3.47;;;15.20;99.90;;;;;;4976247;28;20046;-90
2022/06/21 06:41:57;;;;;;;7.22;3.33;;;15.30;99.90;;;;;;4971286;28;20369;-91
2022/06/21 06:44:31;;;;;;;10.43;3.70;;;15.40;99.90;;;;;;4966980;28;20046;-95
2022/06/21 06:47:01;;;;;;;11.25;4.50;;;15.30;99.90;;;;;;4984211;28;20042;-96
2022/06/21 06:49:35;;;;;;;9.13;4.57;;;15.30;99.90;;;;;;4978945;28;20042;-95
2022/06/21 06:52:04;;;;;;;7.43;3.88;;;15.50;99.90;;;;;;4992315;28;20041;-90
2022/06/21 06:54:30;;;;;;;9.38;3.90;;;15.60;99.90;;;;;;4972782;28;20046;-94
2022/06/21 06:57:18;;;;;;;8.75;4.00;;;15.60;99.90;;;;;;5197182;22;20049;-93
2022/06/21 06:59:44;;;;;;;9.25;4.40;;;15.60;99.90;;;;;;4971701;28;20078;-94
2022/06/21 07:02:34;;;;;;;11.38;4.05;;;15.70;99.90;;;;;;4965056;28;20416;-93
2022/06/21 07:05:12;;;;;;;8.68;3.80;;;15.70;99.90;;;;;;4983545;28;20173;-92
2022/06/21 07:07:49;;;;;;;8.18;3.70;;;15.70;99.90;;;;;;4968391;28;20416;-96
2022/06/21 07:10:19;;;;;;;9.35;3.70;;;15.70;99.90;;;;;;4957300;28;20043;-94
2022/06/21 07:12:44;;;;;;;8.73;3.72;;;15.70;99.90;;;;;;4963654;28;20097;-93
2022/06/21 07:15:12;;;;;;;9.38;3.90;;;15.80;99.90;;;;;;4970086;28;20135;-93
2022/06/21 07:17:54;;;;;;;7.65;3.58;;;15.80;99.90;;;;;;4980797;28;20077;-95
2022/06/21 07:20:28;;;;;;;8.95;3.40;;;15.90;99.90;;;;;;4977082;28;20042;-91
2022/06/21 07:22:55;;;;;;;10.38;4.15;;;16.00;99.90;;;;;;4975980;28;20038;-92
2022/06/21 07:25:42;;;;;;;9.73;4.50;;;16.00;99.90;;;;;;4985101;28;20078;-92
2022/06/21 07:28:14;;;;;;;11.25;4.95;;;16.20;99.90;;;;;;4980014;28;20047;-96
2022/06/21 07:30:45;;;;;;;9.73;4.80;;;16.30;99.90;;;;;;5000770;28;20039;-95
2022/06/21 07:33:41;;;;;;;9.45;4.90;;;16.40;99.90;;;;;;5318120;22;20054;-94
2022/06/21 07:36:19;;;;;;;9.65;5.15;;;16.50;99.90;;;;;;4978110;28;20043;-96
2022/06/21 07:38:58;;;;;;;9.43;4.85;;;16.60;99.90;;;;;;4982627;28;20054;-95
2022/06/21 07:41:30;;;;;;;8.77;4.13;;;16.60;99.90;;;;;;4981152;28;20053;-94
2022/06/21 07:44:02;;;;;;;9.50;4.72;;;16.60;99.90;;;;;;5039279;22;20053;-93
2022/06/21 07:46:34;;;;;;;9.05;4.93;;;16.70;99.90;;;;;;4967214;28;20050;-94
2022/06/21 07:49:19;;;;;;;10.57;5.22;;;16.80;99.90;;;;;;4968557;28;20055;-91
2022/06/21 07:51:50;;;;;;;10.13;4.53;;;16.80;99.90;;;;;;4962633;28;20042;-93
2022/06/21 07:54:22;;;;;;;7.65;3.90;;;16.80;99.90;;;;;;4967419;28;20086;-93
2022/06/21 07:56:58;;;;;;;9.02;3.90;;;16.80;99.90;;;;;;4968295;28;20065;-92
2022/06/21 07:59:31;;;;;;;10.68;3.63;;;16.90;99.90;;;;;;4971344;28;20043;-91
2022/06/21 08:08:49;;;;;;;8.77;3.85;;;16.80;99.90;;;;;;4966411;28;20054;-91
2022/06/21 08:11:26;;;;;;;6.60;3.08;;;16.80;99.90;;;;;;4955660;28;20061;-96
2022/06/21 08:36:45;;;;;;;10.63;4.18;;;17.20;99.90;;;;;;4967017;28;20050;-94
2022/06/21 08:39:36;;;;;;;7.72;3.22;;;17.20;99.90;;;;;;4965468;28;20427;-96
2022/06/21 08:42:01;;;;;;;7.57;3.40;;;17.10;99.90;;;;;;4970580;28;20038;-92
2022/06/21 08:48:24;;;;;;;9.18;2.58;;;17.30;99.90;;;;;;4986194;28;20644;-95
2022/06/21 08:51:14;;;;;;;8.13;2.72;;;17.30;99.90;;;;;;4915167;29;20051;-96
2022/06/21 08:54:03;;;;;;;8.20;2.50;;;17.30;99.90;;;;;;4913954;29;20135;-96
2022/06/21 08:56:52;;;;;;;8.15;2.72;;;17.40;99.90;;;;;;4928303;29;20048;-90
2022/06/21 08:59:43;;;;;;;7.03;3.08;;;17.40;99.90;;;;;;4910408;29;20348;-92
2022/06/21 09:02:11;;;;;;;9.15;3.35;;;17.50;99.90;;;;;;4852765;29;20136;-95
2022/06/21 09:05:02;;;;;;;7.90;3.13;;;17.50;99.90;;;;;;4840470;29;20050;-96
2022/06/21 09:07:36;;;;;;;6.93;2.93;;;17.60;99.90;;;;;;4864648;29;20058;-95
2022/06/21 09:10:39;;;;;;;5.65;2.58;;;17.70;99.90;;;;;;4854346;29;20402;-94
2022/06/21 09:13:47;;;;;;;5.80;2.47;;;17.80;99.90;;;;;;4839404;29;20466;-93
2022/06/21 09:16:17;;;;;;;6.57;2.78;;;17.90;99.90;;;;;;4839615;29;20399;-95
2022/06/21 09:18:48;;;;;;;7.33;2.73;;;18.00;99.90;;;;;;4858845;29;20396;-92
2022/06/21 09:21:38;;;;;;;6.38;3.10;;;18.10;99.90;;;;;;4855882;29;20348;-94
2022/06/21 09:24:13;;;;;;;8.95;2.72;;;18.10;99.90;;;;;;4848754;29;20058;-95
2022/06/21 09:26:55;;;;;;;6.95;2.40;;;18.10;99.90;;;;;;4857627;29;20055;-94
2022/06/21 09:29:21;;;;;;;7.03;2.22;;;18.20;99.90;;;;;;4917220;29;20052;-96
2022/06/21 09:32:30;;;;;;;7.45;2.20;;;18.30;99.90;;;;;;4902551;29;20056;-94
2022/06/21 09:35:16;;;;;;;6.57;2.38;;;18.40;99.90;;;;;;4893169;29;20056;-92
2022/06/21 09:38:15;;;;;;;5.72;2.45;;;18.40;99.90;;;;;;4906483;29;20055;-92
2022/06/21 09:40:56;;;;;;;7.18;2.00;;;18.40;99.90;;;;;;4966994;28;20102;-92
2022/06/21 09:43:48;;;;;;;5.28;1.88;;;18.40;99.90;;;;;;4969631;28;20046;-96
2022/06/21 09:46:40;;;;;;;5.30;1.90;;;18.40;99.90;;;;;;4971513;28;20082;-96
2022/06/21 09:49:52;;;;;;;4.57;2.05;;;18.50;99.90;;;;;;4983433;28;20149;-96
2022/06/21 09:52:40;;;;;;;5.75;1.75;;;18.50;99.90;;;;;;4998086;28;20031;-96
2022/06/21 09:55:40;;;;;;;5.28;2.20;;;18.50;99.90;;;;;;4964326;28;20039;-95
2022/06/21 09:58:45;;;;;;;6.50;2.30;;;18.70;99.80;;;;;;4967133;28;20125;-91
2022/06/21 10:01:37;;;;;;;7.38;2.50;;;18.70;99.90;;;;;;4982902;28;20054;-92
2022/06/21 10:04:18;;;;;;;7.78;2.53;;;18.70;99.90;;;;;;4948943;28;20433;-92
2022/06/21 10:07:10;;;;;;;6.75;2.00;;;18.80;99.90;;;;;;4979782;28;20046;-90
2022/06/21 10:09:56;;;;;;;5.70;1.98;;;18.90;99.90;;;;;;4963727;28;20122;-92
2022/06/21 10:12:47;;;;;;;7.22;2.13;;;19.00;99.90;;;;;;4960831;28;20535;-95
2022/06/21 10:16:03;;;;;;;4.60;2.05;;;19.00;99.90;;;;;;4966813;28;20042;-92
2022/06/21 10:18:54;;;;;;;7.25;2.20;;;19.20;99.50;;;;;;4948010;28;20102;-92
2022/06/21 10:21:43;;;;;;;6.22;1.90;;;19.20;99.40;;;;;;4964402;28;20444;-92
2022/06/21 10:24:21;;;;;;;6.13;2.90;;;19.20;97.30;;;;;;4970435;28;20070;-94
2022/06/21 10:27:24;;;;;;;5.90;2.50;;;19.20;97.10;;;;;;4950611;28;20034;-93
2022/06/21 10:30:20;;;;;;;5.82;2.33;;;19.20;97.50;;;;;;4962811;28;20051;-94
2022/06/21 10:33:08;;;;;;;5.28;2.35;;;19.20;97.50;;;;;;4983719;28;20403;-96
2022/06/21 10:36:16;;;;;;;7.10;2.40;;;19.30;97.20;;;;;;4971165;28;20051;-93
2022/06/21 10:39:16;;;;;;;6.18;2.10;;;19.40;97.00;;;;;;4984326;28;20098;-95
2022/06/21 10:45:20;;;;;;;6.03;2.20;;;19.50;95.70;;;;;;4998214;28;20038;-94
2022/06/21 10:48:19;;;;;;;5.68;2.10;;;19.50;94.70;;;;;;4986562;28;20054;-88
2022/06/21 10:50:52;;;;;;;6.65;2.70;;;19.40;96.20;;;;;;4997018;28;20049;-88
2022/06/21 10:53:55;;;;;;;6.72;2.40;;;19.40;96.00;;;;;;5000549;28;20041;-88
2022/06/21 11:02:57;;;;;;;5.20;1.90;;;19.70;93.60;;;;;;4992069;28;20046;-87
2022/06/21 11:05:37;;;;;;;4.40;2.03;;;19.70;93.70;;;;;;4997943;28;20046;-88
2022/06/21 11:08:18;;;;;;;9.02;2.25;;;19.70;93.30;;;;;;4988018;28;20115;-88
2022/06/21 11:10:52;;;;;;;6.20;2.17;;;19.80;93.20;;;;;;4999093;28;20398;-88
2022/06/21 11:13:25;;;;;;;5.78;1.90;;;19.80;93.10;;;;;;4990797;28;20052;-88
2022/06/21 11:16:04;;;;;;;4.95;2.08;;;19.90;93.70;;;;;;4994825;28;20042;-89
2022/06/21 11:18:42;;;;;;;4.25;1.70;;;19.80;91.70;;;;;;4995592;28;20046;-87
2022/06/21 11:21:19;;;;;;;5.45;1.80;;;19.90;91.60;;;;;;4999802;28;20061;-88
2022/06/21 11:24:30;;;;;;;5.25;2.03;;;19.80;90.50;;;;;;4997076;28;20051;-87
2022/06/21 11:27:21;;;;;;;5.18;1.88;;;19.90;91.30;;;;;;4994749;28;20049;-88
2022/06/21 11:30:06;;;;;;;5.00;1.63;;;19.80;90.80;;;;;;4983188;28;20054;-88
2022/06/21 11:32:58;;;;;;;6.40;2.33;;;19.90;92.40;;;;;;4982873;28;21542;-89
2022/06/21 11:35:29;;;;;;;;;;;19.90;92.00;;;;;;4995800;28;20053;-88
2022/06/21 11:38:19;;;;;;;5.63;1.98;;;19.90;92.40;;;;;;5017560;28;19929;-88
2022/06/21 11:41:02;;;;;;;5.18;2.17;;;20.00;92.10;;;;;;5009194;28;20058;-87
2022/06/21 11:43:27;;;;;;;6.05;2.40;;;20.10;91.40;;;;;;4999194;28;20053;-88
2022/06/21 11:46:12;;;;;;;5.18;2.15;;;20.20;91.70;;;;;;4977086;28;20060;-88
2022/06/21 11:48:56;;;;;;;6.07;2.10;;;20.30;91.50;;;;;;4999610;28;20115;-85
2022/06/21 11:52:14;;;;;;;5.75;1.95;;;20.40;90.30;;;;;;5002340;28;20076;-86
2022/06/21 11:54:49;;;;;;;4.97;1.90;;;20.40;90.20;;;;;;4934555;28;20058;-86
2022/06/21 11:57:38;;;;;;;6.95;2.35;;;20.50;89.30;;;;;;4982359;28;20045;-86
2022/06/21 12:00:06;;;;;;;6.25;2.15;;;20.50;90.20;;;;;;4992458;28;20056;-87
2022/06/21 12:02:59;;;;;;;6.05;2.53;;;20.60;90.80;;;;;;4973416;28;20080;-85
2022/06/21 12:05:40;;;;;;;7.22;2.28;;;20.70;89.00;;;;;;4986170;28;20058;-86
2022/06/21 12:08:16;;;;;;;6.97;2.00;;;20.60;89.90;;;;;;4987960;28;20042;-86
2022/06/21 12:11:07;;;;;;;7.22;2.22;;;20.60;88.50;;;;;;4998503;28;20045;-89
2022/06/21 12:14:06;;;;;;;5.93;2.00;;;20.60;87.10;;;;;;4986346;28;20050;-87
2022/06/21 12:17:06;;;;;;;5.70;2.20;;;20.50;88.20;;;;;;4995750;28;20399;-87
2022/06/21 12:19:36;;;;;;;5.15;2.55;;;20.50;89.60;;;;;;4971523;28;20096;-86
2022/06/21 12:22:06;;;;;;;6.85;2.60;;;20.50;90.10;;;;;;4979876;28;20039;-88
2022/06/21 12:24:33;;;;;;;7.95;2.20;;;20.50;90.20;;;;;;4988416;28;20057;-87
2022/06/21 12:26:59;;;;;;;6.53;2.20;;;20.50;90.80;;;;;;4993844;28;20039;-86
2022/06/21 12:29:25;;;;;;;6.15;2.45;;;20.60;90.20;;;;;;4994564;28;20088;-85
2022/06/21 12:31:54;;;;;;;6.43;2.40;;;20.60;90.10;;;;;;4992000;28;20042;-86
2022/06/21 12:34:39;;;;;;;7.05;2.38;;;20.60;90.00;;;;;;4989646;28;20058;-87
2022/06/21 12:37:10;;;;;;;4.90;2.17;;;20.70;90.10;;;;;;4970070;28;20138;-86
2022/06/21 12:39:40;;;;;;;7.63;2.58;;;20.70;90.20;;;;;;4993106;28;20108;-87
2022/06/21 12:42:14;;;;;;;6.32;2.30;;;20.70;89.80;;;;;;5002029;28;20065;-86
2022/06/21 12:44:52;;;;;;;5.80;2.13;;;20.70;90.30;;;;;;4991118;28;20073;-86
2022/06/21 12:47:53;;;;;;;5.97;2.10;;;20.80;90.00;;;;;;4994482;28;20162;-87
2022/06/21 12:50:44;;;;;;;6.57;2.50;;;20.90;90.60;;;;;;5003246;28;20049;-86
2022/06/21 12:53:40;;;;;;;5.97;2.58;;;21.00;87.70;;;;;;4994595;28;20046;-86
2022/06/21 12:56:30;;;;;;;5.15;1.90;;;21.10;86.80;;;;;;4991311;28;20104;-86
2022/06/21 12:59:08;;;;;;;7.38;2.47;;;21.10;87.00;;;;;;4995099;28;20103;-87
2022/06/21 13:01:59;;;;;;;6.45;2.58;;;21.10;86.70;;;;;;4999377;28;20042;-88
2022/06/21 13:04:44;;;;;;;4.95;2.20;;;21.20;85.20;;;;;;4991611;28;20077;-84
2022/06/21 13:07:44;;;;;;;6.50;2.00;;;21.30;84.50;;;;;;4992057;28;20470;-87
2022/06/21 13:10:45;;;;;;;6.50;2.17;;;21.40;86.70;;;;;;4994067;28;20065;-87
2022/06/21 13:13:35;;;;;;;6.20;1.88;;;21.40;86.80;;;;;;4993115;28;20038;-87
2022/06/21 13:16:25;;;;;;;4.03;1.77;;;21.50;87.90;;;;;;4991405;28;20069;-87
2022/06/21 13:19:18;;;;;;;5.47;2.22;;;21.60;89.80;;;;;;4998957;28;20046;-87
2022/06/21 13:21:54;;;;;;;4.53;1.80;;;21.60;87.00;;;;;;4997686;28;20049;-87
2022/06/21 13:24:46;;;;;;;6.13;2.13;;;21.70;86.80;;;;;;4996362;28;20077;-86
2022/06/21 13:27:21;;;;;;;6.22;1.90;;;21.60;86.80;;;;;;4990086;28;20046;-87
2022/06/21 13:30:11;;;;;;;9.02;2.00;;;21.60;87.40;;;;;;4978903;28;20041;-86
2022/06/21 13:33:21;;;;;;;6.25;1.85;;;21.50;86.40;;;;;;4993583;28;20465;-87
2022/06/21 13:36:02;;;;;;;4.68;2.10;;;21.50;88.70;;;;;;4975116;28;20073;-88
2022/06/21 13:38:27;;;;;;;;;;;21.40;86.20;;;;;;5000335;28;20041;-87
2022/06/21 13:41:04;;;;;;;6.75;1.80;;;21.20;87.50;;;;;;4981177;28;19929;-86
2022/06/21 13:43:38;;;;;;;6.18;2.33;;;21.30;87.90;;;;;;4994358;28;20108;-86
2022/06/21 13:46:14;;;;;;;6.65;2.00;;;21.30;86.20;;;;;;4996497;28;20050;-87
2022/06/21 13:48:50;;;;;;;5.05;1.80;;;21.30;85.50;;;;;;4997533;28;20073;-86
2022/06/21 13:51:15;;;;;;;9.90;2.20;;;21.40;86.40;;;;;;4982408;28;20418;-86
2022/06/21 13:53:53;;;;;;;5.03;1.75;;;21.50;86.70;;;;;;4993207;28;20125;-86
2022/06/21 13:56:26;;;;;;;5.32;1.92;;;21.60;86.60;;;;;;5000718;28;20046;-87
2022/06/21 13:59:07;;;;;;;4.65;1.80;;;21.70;87.40;;;;;;5004943;28;20037;-87
2022/06/21 14:01:39;;;;;;;;;;;21.70;87.40;;;;;;4988966;28;20039;-87
2022/06/21 14:04:42;;;;;;;5.35;2.10;;;21.60;87.20;;;;;;4996661;28;19921;-87
2022/06/21 14:07:44;;;;;;;6.43;1.92;;;21.70;87.30;;;;;;4976934;28;20046;-86
2022/06/21 14:10:27;;;;;;;5.15;1.80;;;21.80;85.90;;;;;;4992030;28;20429;-87
2022/06/21 14:13:11;;;;;;;5.20;1.77;;;21.90;84.50;;;;;;4999936;28;20169;-87
2022/06/21 14:15:57;;;;;;;4.30;1.75;;;22.00;84.50;;;;;;4993830;28;20049;-87
2022/06/21 14:18:32;;;;;;;6.13;1.80;;;22.00;84.90;;;;;;4983946;28;20183;-87
2022/06/21 14:21:02;;;;;;;5.15;2.13;;;22.10;87.10;;;;;;4990011;28;20403;-87
2022/06/21 14:24:02;;;;;;;6.30;2.20;;;22.10;84.70;;;;;;5005389;28;20101;-87
2022/06/21 14:26:36;;;;;;;6.40;2.00;;;22.00;81.00;;;;;;4983246;28;20386;-86
2022/06/21 14:29:08;;;;;;;5.13;1.83;;;21.90;83.20;;;;;;4981656;28;20180;-87
2022/06/21 14:31:36;;;;;;;5.05;1.50;;;21.90;84.10;;;;;;4979899;28;20100;-87
2022/06/21 14:34:12;;;;;;;3.72;1.33;;;22.00;82.80;;;;;;4980104;28;20449;-88